createdAt,value
2017-11-03T00:00:38.721Z,69.27
2017-11-03T00:01:39.061Z,69.56
2017-11-03T00:02:39.133Z,69.56
2017-11-03T00:03:39.103Z,69.27
2017-11-03T00:04:39.124Z,69.27
2017-11-03T00:05:39.143Z,69.47
2017-11-03T00:06:39.163Z,70.29
2017-11-03T00:07:39.185Z,70.04
2017-11-03T00:08:39.203Z,69.95
2017-11-03T00:09:39.240Z,71.06
2017-11-03T00:10:38.925Z,71.72
2017-11-03T00:11:39.268Z,72.01
2017-11-03T00:12:39.289Z,71.92
2017-11-03T00:13:38.983Z,72.68
2017-11-03T00:14:39.001Z,72.68
2017-11-03T00:15:39.344Z,72.39
2017-11-03T00:16:39.363Z,72.78
2017-11-03T00:17:39.650Z,72.78
2017-11-03T00:18:39.404Z,72.78
2017-11-03T00:19:39.421Z,72.87
2017-11-03T00:20:39.441Z,72.58
2017-11-03T00:21:39.141Z,72.39
2017-11-03T00:22:39.481Z,72.01
2017-11-03T00:23:39.500Z,72.68
2017-11-03T00:24:39.520Z,72.3
2017-11-03T00:25:39.230Z,72.3
2017-11-03T00:26:39.238Z,72.39
2017-11-03T00:27:39.581Z,71.92
2017-11-03T00:28:39.617Z,72.11
2017-11-03T00:29:39.616Z,71.67
2017-11-03T00:30:39.636Z,72.14
2017-11-03T00:31:39.334Z,71.53
2017-11-03T00:32:39.679Z,71.15
2017-11-03T00:33:39.427Z,71.19
2017-11-03T00:34:39.396Z,71.47
2017-11-03T00:35:39.745Z,71.09
2017-11-03T00:36:39.758Z,71.28
2017-11-03T00:37:39.777Z,70.61
2017-11-03T00:38:39.476Z,70.52
2017-11-03T00:39:39.829Z,70.81
2017-11-03T00:40:39.840Z,70.9
2017-11-03T00:41:39.855Z,71
2017-11-03T00:42:39.554Z,70.42
2017-11-03T00:43:39.902Z,70.9
2017-11-03T00:44:39.921Z,70.61
2017-11-03T00:45:39.939Z,70.33
2017-11-03T00:46:39.637Z,70.52
2017-11-03T00:47:39.981Z,70.46
2017-11-03T00:48:40.051Z,70.27
2017-11-03T00:49:39.707Z,69.6
2017-11-03T00:50:39.720Z,69.5
2017-11-03T00:51:40.063Z,69.7
2017-11-03T00:52:39.762Z,69.98
2017-11-03T00:53:40.105Z,69.41
2017-11-03T00:54:40.118Z,69.7
2017-11-03T00:55:40.138Z,69.31
2017-11-03T00:56:40.160Z,69.21
2017-11-03T00:57:39.867Z,69.31
2017-11-03T00:58:39.900Z,69.41
2017-11-03T00:59:40.221Z,69.21
2017-11-03T01:00:40.240Z,69.02
2017-11-03T01:01:39.940Z,69.21
2017-11-03T01:02:40.281Z,69.12
2017-11-03T01:03:40.301Z,69.37
2017-11-03T01:04:40.319Z,69.37
2017-11-03T01:05:40.356Z,69.41
2017-11-03T01:06:40.412Z,69.79
2017-11-03T01:07:40.403Z,70.27
2017-11-03T01:08:40.403Z,70.17
2017-11-03T01:09:40.423Z,69.98
2017-11-03T01:10:40.442Z,69.41
2017-11-03T01:11:40.491Z,69.5
2017-11-03T01:12:40.165Z,69.21
2017-11-03T01:13:40.512Z,69.02
2017-11-03T01:14:40.529Z,69.31
2017-11-03T01:15:40.560Z,69.41
2017-11-03T01:16:40.566Z,69.5
2017-11-03T01:17:40.271Z,70.23
2017-11-03T01:18:40.608Z,70.14
2017-11-03T01:19:40.627Z,70.04
2017-11-03T01:20:40.648Z,70.23
2017-11-03T01:21:40.398Z,69.85
2017-11-03T01:22:40.364Z,71.09
2017-11-03T01:23:40.388Z,71.15
2017-11-03T01:24:40.728Z,71.19
2017-11-03T01:25:40.747Z,71.86
2017-11-03T01:26:41.115Z,71.53
2017-11-03T01:27:40.788Z,72.01
2017-11-03T01:28:40.811Z,71.72
2017-11-03T01:29:40.504Z,72.11
2017-11-03T01:30:40.850Z,72.58
2017-11-03T01:31:40.551Z,72.3
2017-11-03T01:32:40.577Z,72.49
2017-11-03T01:33:40.907Z,72.78
2017-11-03T01:34:40.926Z,72.01
2017-11-03T01:35:40.944Z,72.05
2017-11-03T01:36:40.697Z,72.01
2017-11-03T01:37:40.664Z,71.67
2017-11-03T01:38:41.008Z,72.01
2017-11-03T01:39:41.026Z,72.01
2017-11-03T01:40:41.043Z,71.95
2017-11-03T01:41:40.742Z,71.86
2017-11-03T01:42:41.085Z,71.09
2017-11-03T01:43:40.785Z,71.38
2017-11-03T01:44:40.802Z,71.28
2017-11-03T01:45:41.144Z,71.19
2017-11-03T01:46:40.861Z,70.9
2017-11-03T01:47:40.864Z,71.19
2017-11-03T01:48:41.205Z,71
2017-11-03T01:49:41.224Z,70.81
2017-11-03T01:50:41.245Z,71.09
2017-11-03T01:51:41.312Z,71.19
2017-11-03T01:52:41.281Z,71.19
2017-11-03T01:53:41.303Z,71.86
2017-11-03T01:54:41.000Z,71.57
2017-11-03T01:55:41.348Z,71.63
2017-11-03T01:56:41.375Z,72.58
2017-11-03T01:57:41.412Z,72.33
2017-11-03T01:58:41.412Z,74.15
2017-11-03T01:59:41.421Z,74.15
2017-11-03T02:00:41.445Z,73
2017-11-03T02:01:41.142Z,72.53
2017-11-03T02:02:41.482Z,73.1
2017-11-03T02:03:41.179Z,73
2017-11-03T02:04:41.210Z,72.39
2017-11-03T02:05:41.218Z,72.62
2017-11-03T02:06:41.290Z,73.16
2017-11-03T02:07:41.581Z,73.83
2017-11-03T02:08:41.605Z,74.69
2017-11-03T02:09:41.297Z,74.78
2017-11-03T02:10:41.638Z,74.59
2017-11-03T02:11:41.337Z,74.59
2017-11-03T02:12:41.679Z,75.26
2017-11-03T02:13:41.699Z,74.3
2017-11-03T02:14:41.397Z,75.07
2017-11-03T02:15:41.417Z,75.35
2017-11-03T02:16:41.437Z,74.59
2017-11-03T02:17:41.782Z,74.59
2017-11-03T02:18:41.479Z,75.26
2017-11-03T02:19:41.496Z,74.98
2017-11-03T02:20:41.841Z,74.59
2017-11-03T02:21:41.855Z,74.4
2017-11-03T02:22:41.878Z,75.07
2017-11-03T02:23:41.900Z,75.16
2017-11-03T02:24:41.591Z,75.26
2017-11-03T02:25:41.949Z,74.4
2017-11-03T02:26:41.631Z,74.98
2017-11-03T02:27:41.974Z,74.4
2017-11-03T02:28:41.993Z,75.26
2017-11-03T02:29:42.017Z,74.98
2017-11-03T02:30:41.711Z,74.49
2017-11-03T02:31:42.054Z,74.59
2017-11-03T02:32:42.070Z,74.78
2017-11-03T02:33:41.772Z,75.01
2017-11-03T02:34:42.113Z,74.53
2017-11-03T02:35:42.129Z,74.82
2017-11-03T02:36:42.152Z,74.34
2017-11-03T02:37:41.850Z,74.05
2017-11-03T02:38:42.189Z,73.19
2017-11-03T02:39:42.210Z,73.1
2017-11-03T02:40:41.914Z,72.81
2017-11-03T02:41:42.257Z,73.1
2017-11-03T02:42:41.960Z,72.78
2017-11-03T02:43:42.295Z,72.97
2017-11-03T02:44:42.312Z,72.78
2017-11-03T02:45:42.010Z,73.16
2017-11-03T02:46:42.027Z,73.35
2017-11-03T02:47:42.372Z,73.44
2017-11-03T02:48:42.070Z,73.83
2017-11-03T02:49:42.412Z,73.63
2017-11-03T02:50:42.433Z,73.54
2017-11-03T02:51:42.129Z,74.02
2017-11-03T02:52:42.469Z,73.48
2017-11-03T02:53:42.491Z,73.19
2017-11-03T02:54:42.189Z,73.73
2017-11-03T02:55:42.532Z,73.73
2017-11-03T02:56:42.549Z,74.11
2017-11-03T02:57:42.246Z,74.02
2017-11-03T02:58:42.585Z,73.92
2017-11-03T02:59:42.611Z,73.92
2017-11-03T03:00:42.627Z,73.83
2017-11-03T03:01:42.325Z,73.54
2017-11-03T03:02:42.347Z,74.02
2017-11-03T03:03:42.366Z,74.02
2017-11-03T03:04:42.709Z,74.11
2017-11-03T03:05:42.765Z,73.92
2017-11-03T03:06:42.426Z,74.02
2017-11-03T03:07:42.766Z,74.59
2017-11-03T03:08:42.785Z,73.54
2017-11-03T03:09:42.806Z,74.02
2017-11-03T03:10:42.838Z,74.11
2017-11-03T03:11:42.530Z,73.92
2017-11-03T03:12:42.867Z,74.11
2017-11-03T03:13:42.561Z,74.21
2017-11-03T03:14:42.604Z,74.59
2017-11-03T03:15:42.928Z,74.59
2017-11-03T03:16:42.944Z,74.93
2017-11-03T03:17:42.965Z,75.16
2017-11-03T03:18:42.661Z,75.07
2017-11-03T03:19:43.005Z,75.89
2017-11-03T03:20:43.027Z,75.7
2017-11-03T03:21:43.056Z,75.79
2017-11-03T03:22:42.740Z,75.89
2017-11-03T03:23:42.759Z,76.5
2017-11-03T03:24:43.110Z,76.18
2017-11-03T03:25:42.804Z,76.37
2017-11-03T03:26:43.144Z,76.75
2017-11-03T03:27:42.837Z,76.4
2017-11-03T03:28:42.909Z,76.46
2017-11-03T03:29:42.877Z,76.4
2017-11-03T03:30:43.217Z,76.94
2017-11-03T03:31:43.244Z,76.94
2017-11-03T03:32:43.256Z,76.65
2017-11-03T03:33:43.275Z,77.03
2017-11-03T03:34:43.300Z,77.03
2017-11-03T03:35:42.992Z,77.32
2017-11-03T03:36:43.339Z,77.13
2017-11-03T03:37:43.355Z,77.23
2017-11-03T03:38:43.050Z,77.13
2017-11-03T03:39:43.392Z,77.32
2017-11-03T03:40:43.431Z,77.13
2017-11-03T03:41:43.113Z,77.13
2017-11-03T03:42:43.133Z,76.75
2017-11-03T03:43:43.470Z,77.32
2017-11-03T03:44:43.168Z,77.13
2017-11-03T03:45:43.506Z,76.94
2017-11-03T03:46:43.203Z,76.75
2017-11-03T03:47:43.596Z,76.88
2017-11-03T03:48:43.564Z,76.65
2017-11-03T03:49:43.585Z,76.46
2017-11-03T03:50:43.281Z,76.98
2017-11-03T03:51:43.626Z,76.08
2017-11-03T03:52:43.642Z,75.7
2017-11-03T03:53:43.660Z,75.6
2017-11-03T03:54:43.681Z,75.93
2017-11-03T03:55:43.697Z,75.93
2017-11-03T03:56:43.720Z,75.89
2017-11-03T03:57:43.745Z,75.74
2017-11-03T03:58:43.759Z,75.74
2017-11-03T03:59:43.777Z,75.83
2017-11-03T04:00:43.798Z,75.54
2017-11-03T04:01:43.816Z,75.16
2017-11-03T04:02:43.514Z,75.07
2017-11-03T04:03:43.877Z,75.16
2017-11-03T04:04:43.885Z,75.54
2017-11-03T04:05:43.893Z,75.35
2017-11-03T04:06:43.964Z,75.74
2017-11-03T04:07:43.934Z,76.03
2017-11-03T04:08:43.952Z,76.03
2017-11-03T04:09:43.972Z,75.74
2017-11-03T04:10:43.991Z,76.4
2017-11-03T04:11:43.690Z,76.27
2017-11-03T04:12:44.031Z,75.89
2017-11-03T04:13:44.058Z,76.65
2017-11-03T04:14:44.072Z,76.56
2017-11-03T04:15:43.769Z,77.13
2017-11-03T04:16:44.114Z,77.23
2017-11-03T04:17:44.153Z,77.03
2017-11-03T04:18:43.841Z,76.94
2017-11-03T04:19:44.169Z,76.65
2017-11-03T04:20:44.190Z,76.4
2017-11-03T04:21:44.259Z,76.37
2017-11-03T04:22:44.225Z,76.56
2017-11-03T04:23:43.924Z,76.27
2017-11-03T04:24:44.267Z,76.75
2017-11-03T04:25:44.284Z,77.51
2017-11-03T04:26:44.300Z,77.23
2017-11-03T04:27:44.328Z,76.94
2017-11-03T04:28:44.342Z,77.42
2017-11-03T04:29:44.366Z,76.65
2017-11-03T04:30:44.378Z,76.84
2017-11-03T04:31:44.079Z,77.13
2017-11-03T04:32:44.099Z,77.42
2017-11-03T04:33:44.444Z,77.32
2017-11-03T04:34:44.458Z,76.65
2017-11-03T04:35:44.154Z,76.94
2017-11-03T04:36:44.173Z,77.23
2017-11-03T04:37:44.512Z,77.61
2017-11-03T04:38:44.586Z,77.03
2017-11-03T04:39:44.234Z,77.13
2017-11-03T04:40:44.252Z,77.13
2017-11-03T04:41:44.275Z,76.94
2017-11-03T04:42:44.612Z,77.13
2017-11-03T04:43:44.632Z,77.23
2017-11-03T04:44:44.328Z,77.23
2017-11-03T04:45:44.675Z,77.8
2017-11-03T04:46:44.368Z,77.51
2017-11-03T04:47:44.708Z,77.61
2017-11-03T04:48:44.736Z,77.23
2017-11-03T04:49:44.749Z,77.23
2017-11-03T04:50:44.768Z,77.03
2017-11-03T04:51:44.788Z,77.32
2017-11-03T04:52:44.806Z,77.42
2017-11-03T04:53:44.876Z,77.99
2017-11-03T04:54:44.524Z,78.09
2017-11-03T04:55:44.865Z,77.8
2017-11-03T04:56:44.894Z,79
2017-11-03T04:57:44.903Z,78.52
2017-11-03T04:58:44.922Z,78.66
2017-11-03T04:59:44.619Z,77.42
2017-11-03T05:00:44.983Z,77.42
2017-11-03T05:01:44.982Z,77.23
2017-11-03T05:02:44.698Z,77.42
2017-11-03T05:03:45.036Z,77.42
2017-11-03T05:04:45.034Z,76.94
2017-11-03T05:05:44.737Z,77.03
2017-11-03T05:06:44.756Z,77.61
2017-11-03T05:07:44.775Z,77.23
2017-11-03T05:08:45.167Z,77.32
2017-11-03T05:09:45.136Z,76.75
2017-11-03T05:10:44.834Z,76.84
2017-11-03T05:11:45.176Z,76.65
2017-11-03T05:12:44.873Z,76.94
2017-11-03T05:13:45.214Z,76.94
2017-11-03T05:14:45.267Z,76.37
2017-11-03T05:15:44.928Z,76.46
2017-11-03T05:16:45.269Z,76.56
2017-11-03T05:17:45.292Z,76.65
2017-11-03T05:18:45.014Z,76.4
2017-11-03T05:19:45.340Z,76.6
2017-11-03T05:20:45.351Z,76.4
2017-11-03T05:21:45.485Z,76.03
2017-11-03T05:22:45.398Z,76.6
2017-11-03T05:23:45.455Z,75.93
2017-11-03T05:24:45.102Z,75.74
2017-11-03T05:25:45.489Z,75.74
2017-11-03T05:26:45.142Z,75.54
2017-11-03T05:27:45.484Z,76.12
2017-11-03T05:28:45.180Z,75.54
2017-11-03T05:29:45.520Z,75.89
2017-11-03T05:30:45.543Z,75.7
2017-11-03T05:31:45.559Z,75.93
2017-11-03T05:32:45.581Z,75.93
2017-11-03T05:33:45.279Z,76.46
2017-11-03T05:34:45.310Z,76.56
2017-11-03T05:35:45.641Z,76.6
2017-11-03T05:36:45.337Z,75.74
2017-11-03T05:37:45.686Z,76.12
2017-11-03T05:38:45.696Z,75.93
2017-11-03T05:39:45.455Z,75.54
2017-11-03T05:40:45.741Z,75.54
2017-11-03T05:41:45.761Z,75.54
2017-11-03T05:42:45.457Z,75.35
2017-11-03T05:43:45.800Z,75.16
2017-11-03T05:44:45.870Z,75.07
2017-11-03T05:45:45.837Z,74.69
2017-11-03T05:46:45.872Z,74.73
2017-11-03T05:47:45.557Z,74.59
2017-11-03T05:48:45.572Z,74.88
2017-11-03T05:49:45.915Z,74.69
2017-11-03T05:50:45.942Z,74.44
2017-11-03T05:51:45.955Z,74.21
2017-11-03T05:52:45.978Z,74.53
2017-11-03T05:53:45.996Z,73.73
2017-11-03T05:54:45.692Z,74.02
2017-11-03T05:55:46.040Z,73.92
2017-11-03T05:56:46.064Z,74.34
2017-11-03T05:57:45.753Z,74.15
2017-11-03T05:58:46.094Z,73.96
2017-11-03T05:59:46.165Z,74.21
2017-11-03T06:00:45.812Z,74.15
2017-11-03T06:01:46.155Z,73.77
2017-11-03T06:02:45.853Z,74.02
2017-11-03T06:03:46.198Z,73.73
2017-11-03T06:04:45.898Z,73.96
2017-11-03T06:05:46.238Z,73.86
2017-11-03T06:06:45.933Z,73.48
2017-11-03T06:07:46.276Z,73.07
2017-11-03T06:08:46.293Z,73.29
2017-11-03T06:09:45.992Z,73.25
2017-11-03T06:10:46.337Z,73.19
2017-11-03T06:11:46.059Z,73.35
2017-11-03T06:12:46.051Z,73.83
2017-11-03T06:13:46.072Z,73.19
2017-11-03T06:14:46.416Z,72.68
2017-11-03T06:15:46.435Z,73.39
2017-11-03T06:16:46.457Z,73.92
2017-11-03T06:17:46.152Z,74.11
2017-11-03T06:18:46.220Z,74.11
2017-11-03T06:19:46.513Z,74.4
2017-11-03T06:20:46.530Z,74.4
2017-11-03T06:21:46.552Z,74.69
2017-11-03T06:22:46.252Z,74.02
2017-11-03T06:23:46.590Z,74.3
2017-11-03T06:24:46.637Z,74.49
2017-11-03T06:25:46.309Z,73.96
2017-11-03T06:26:46.335Z,73.58
2017-11-03T06:27:46.353Z,73.96
2017-11-03T06:28:46.893Z,74.05
2017-11-03T06:29:46.411Z,74.15
2017-11-03T06:30:46.412Z,73.67
2017-11-03T06:31:46.755Z,73.96
2017-11-03T06:32:46.780Z,73.48
2017-11-03T06:33:46.847Z,73.1
2017-11-03T06:34:46.816Z,72.72
2017-11-03T06:35:46.845Z,73
2017-11-03T06:36:46.532Z,72.81
2017-11-03T06:37:46.874Z,72.62
2017-11-03T06:38:46.900Z,72.72
2017-11-03T06:39:46.928Z,72.53
2017-11-03T06:40:46.940Z,72.53
2017-11-03T06:41:46.634Z,72.62
2017-11-03T06:42:46.668Z,72.72
2017-11-03T06:43:46.995Z,72.53
2017-11-03T06:44:46.703Z,71.86
2017-11-03T06:45:47.059Z,72.14
2017-11-03T06:46:46.737Z,72.91
2017-11-03T06:47:47.085Z,72.14
2017-11-03T06:48:47.099Z,72.43
2017-11-03T06:49:47.177Z,72.97
2017-11-03T06:50:46.820Z,73.16
2017-11-03T06:51:46.834Z,73.83
2017-11-03T06:52:46.861Z,73.73
2017-11-03T06:53:46.876Z,74.11
2017-11-03T06:54:46.896Z,74.4
2017-11-03T06:55:47.236Z,74.02
2017-11-03T06:56:46.937Z,73.83
2017-11-03T06:57:47.286Z,73.44
2017-11-03T06:58:47.308Z,73.44
2017-11-03T06:59:47.319Z,73.39
2017-11-03T07:00:47.336Z,73
2017-11-03T07:01:47.361Z,73.77
2017-11-03T07:02:47.380Z,73.83
2017-11-03T07:03:47.399Z,74.11
2017-11-03T07:04:47.424Z,74.69
2017-11-03T07:05:47.119Z,74.3
2017-11-03T07:06:47.139Z,74.11
2017-11-03T07:07:47.211Z,74.49
2017-11-03T07:08:47.502Z,74.69
2017-11-03T07:09:47.518Z,74.59
2017-11-03T07:10:47.549Z,74.78
2017-11-03T07:11:47.242Z,74.69
2017-11-03T07:12:47.258Z,74.59
2017-11-03T07:13:47.599Z,74.02
2017-11-03T07:14:47.301Z,73.54
2017-11-03T07:15:47.640Z,74.21
2017-11-03T07:16:47.685Z,73.54
2017-11-03T07:17:47.687Z,73.39
2017-11-03T07:18:47.701Z,73
2017-11-03T07:19:47.734Z,73.77
2017-11-03T07:20:47.741Z,72.81
2017-11-03T07:21:47.765Z,72.14
2017-11-03T07:22:47.784Z,72.24
2017-11-03T07:23:47.482Z,72.33
2017-11-03T07:24:47.828Z,72.05
2017-11-03T07:25:47.529Z,72.14
2017-11-03T07:26:47.914Z,72.33
2017-11-03T07:27:47.562Z,71.95
2017-11-03T07:28:47.906Z,71.57
2017-11-03T07:29:47.932Z,71.95
2017-11-03T07:30:47.626Z,72.05
2017-11-03T07:31:47.645Z,73.1
2017-11-03T07:32:47.665Z,73
2017-11-03T07:33:48.015Z,73.19
2017-11-03T07:34:48.042Z,72.53
2017-11-03T07:35:48.050Z,72.53
2017-11-03T07:36:48.074Z,72.81
2017-11-03T07:37:48.115Z,73.77
2017-11-03T07:38:48.109Z,72.81
2017-11-03T07:39:47.808Z,73.19
2017-11-03T07:40:48.154Z,72.91
2017-11-03T07:41:48.222Z,73
2017-11-03T07:42:48.192Z,73.48
2017-11-03T07:43:47.894Z,73.67
2017-11-03T07:44:48.232Z,73.86
2017-11-03T07:45:47.939Z,73.86
2017-11-03T07:46:48.273Z,74.24
2017-11-03T07:47:48.299Z,74.15
2017-11-03T07:48:48.315Z,74.53
2017-11-03T07:49:48.013Z,74.44
2017-11-03T07:50:48.364Z,74.05
2017-11-03T07:51:48.375Z,73.58
2017-11-03T07:52:48.401Z,73.86
2017-11-03T07:53:48.444Z,73.77
2017-11-03T07:54:48.441Z,72.72
2017-11-03T07:55:48.463Z,72.28
2017-11-03T07:56:48.165Z,72.37
2017-11-03T07:57:48.196Z,71.8
2017-11-03T07:58:48.520Z,72.18
2017-11-03T07:59:48.267Z,71.7
2017-11-03T08:00:48.564Z,71.8
2017-11-03T08:01:48.584Z,71.42
2017-11-03T08:02:48.280Z,71.99
2017-11-03T08:03:48.622Z,71.89
2017-11-03T08:04:48.322Z,72.37
2017-11-03T08:05:48.345Z,71.8
2017-11-03T08:06:48.690Z,71.89
2017-11-03T08:07:48.384Z,71.89
2017-11-03T08:08:48.729Z,71.8
2017-11-03T08:09:48.425Z,72.18
2017-11-03T08:10:48.446Z,71.51
2017-11-03T08:11:48.471Z,71.61
2017-11-03T08:12:48.808Z,71.42
2017-11-03T08:13:48.830Z,70.94
2017-11-03T08:14:48.850Z,71.51
2017-11-03T08:15:48.873Z,71.22
2017-11-03T08:16:48.569Z,71.42
2017-11-03T08:17:48.591Z,71.32
2017-11-03T08:18:48.986Z,71.22
2017-11-03T08:19:48.629Z,71.32
2017-11-03T08:20:48.974Z,71.13
2017-11-03T08:21:48.676Z,70.94
2017-11-03T08:22:49.017Z,70.94
2017-11-03T08:23:49.054Z,70.75
2017-11-03T08:24:48.733Z,71.13
2017-11-03T08:25:49.078Z,70.36
2017-11-03T08:26:48.776Z,70.65
2017-11-03T08:27:48.803Z,70.3
2017-11-03T08:28:49.193Z,70.01
2017-11-03T08:29:48.838Z,70.3
2017-11-03T08:30:49.180Z,69.54
2017-11-03T08:31:49.206Z,69.92
2017-11-03T08:32:49.225Z,69.54
2017-11-03T08:33:48.920Z,70.01
2017-11-03T08:34:49.261Z,69.64
2017-11-03T08:35:48.986Z,69.54
2017-11-03T08:36:48.984Z,69.64
2017-11-03T08:37:49.007Z,70.27
2017-11-03T08:38:49.344Z,70.94
2017-11-03T08:39:49.370Z,71.22
2017-11-03T08:40:49.066Z,71.61
2017-11-03T08:41:49.095Z,70.56
2017-11-03T08:42:49.105Z,70.75
2017-11-03T08:43:49.480Z,71.13
2017-11-03T08:44:49.474Z,70.94
2017-11-03T08:45:49.494Z,70.65
2017-11-03T08:46:49.509Z,71.32
2017-11-03T08:47:49.256Z,71.03
2017-11-03T08:48:49.550Z,71.42
2017-11-03T08:49:49.584Z,70.65
2017-11-03T08:50:49.271Z,71.22
2017-11-03T08:51:49.291Z,71.51
2017-11-03T08:52:49.635Z,71.61
2017-11-03T08:53:49.659Z,72.14
2017-11-03T08:54:49.350Z,71.67
2017-11-03T08:55:49.695Z,71.76
2017-11-03T08:56:49.389Z,71.8
2017-11-03T08:57:49.734Z,71.22
2017-11-03T08:58:49.759Z,71.22
2017-11-03T08:59:49.774Z,71.51
2017-11-03T09:00:49.801Z,71.99
2017-11-03T09:01:49.492Z,72.08
2017-11-03T09:02:49.885Z,71.99
2017-11-03T09:03:49.852Z,71.8
2017-11-03T09:04:49.876Z,71.22
2017-11-03T09:05:49.899Z,70.84
2017-11-03T09:06:49.918Z,70.84
2017-11-03T09:07:49.613Z,70.56
2017-11-03T09:08:49.975Z,70.56
2017-11-03T09:09:49.653Z,69.54
2017-11-03T09:10:49.675Z,70.5
2017-11-03T09:11:50.015Z,69.92
2017-11-03T09:12:49.716Z,69.44
2017-11-03T09:13:50.060Z,69.35
2017-11-03T09:14:50.079Z,69.25
2017-11-03T09:15:49.779Z,69.15
2017-11-03T09:16:50.127Z,68.87
2017-11-03T09:17:49.816Z,69.35
2017-11-03T09:18:50.166Z,68.77
2017-11-03T09:19:50.349Z,68.52
2017-11-03T09:20:50.201Z,68.23
2017-11-03T09:21:49.903Z,68.1
2017-11-03T09:22:50.244Z,67.56
2017-11-03T09:23:50.262Z,67.66
2017-11-03T09:24:49.962Z,67.27
2017-11-03T09:25:50.304Z,67.37
2017-11-03T09:26:50.006Z,66.89
2017-11-03T09:27:50.026Z,66.61
2017-11-03T09:28:50.058Z,67.18
2017-11-03T09:29:50.389Z,66.8
2017-11-03T09:30:50.414Z,66.13
2017-11-03T09:31:50.106Z,66.61
2017-11-03T09:32:50.455Z,66.41
2017-11-03T09:33:50.150Z,66.7
2017-11-03T09:34:50.491Z,66.13
2017-11-03T09:35:50.239Z,66.25
2017-11-03T09:36:50.213Z,66.22
2017-11-03T09:37:50.558Z,66.89
2017-11-03T09:38:50.256Z,66.16
2017-11-03T09:39:50.630Z,66.22
2017-11-03T09:40:50.298Z,66.93
2017-11-03T09:41:50.641Z,66.16
2017-11-03T09:42:50.661Z,65.78
2017-11-03T09:43:50.360Z,65.39
2017-11-03T09:44:50.706Z,64.72
2017-11-03T09:45:50.400Z,65.2
2017-11-03T09:46:50.746Z,64.82
2017-11-03T09:47:50.765Z,64.63
2017-11-03T09:48:50.464Z,65.39
2017-11-03T09:49:50.485Z,65.78
2017-11-03T09:50:50.556Z,65.11
2017-11-03T09:51:50.529Z,65.78
2017-11-03T09:52:50.548Z,65.58
2017-11-03T09:53:50.570Z,65.58
2017-11-03T09:54:50.593Z,65.39
2017-11-03T09:55:50.611Z,65.11
2017-11-03T09:56:50.972Z,64.53
2017-11-03T09:57:50.654Z,63.67
2017-11-03T09:58:50.996Z,64.15
2017-11-03T09:59:51.016Z,64.53
2017-11-03T10:00:50.718Z,64.15
2017-11-03T10:01:51.059Z,64.43
2017-11-03T10:02:50.758Z,64.34
2017-11-03T10:03:51.102Z,64.15
2017-11-03T10:04:50.801Z,64.25
2017-11-03T10:05:51.142Z,64.53
2017-11-03T10:06:50.844Z,65.58
2017-11-03T10:07:50.870Z,64.34
2017-11-03T10:08:51.265Z,64.05
2017-11-03T10:09:51.231Z,64.15
2017-11-03T10:10:51.254Z,64.43
2017-11-03T10:11:50.950Z,64.34
2017-11-03T10:12:51.296Z,63.76
2017-11-03T10:13:51.339Z,64.34
2017-11-03T10:14:51.337Z,63.96
2017-11-03T10:15:51.037Z,64.05
2017-11-03T10:16:51.378Z,64.05
2017-11-03T10:17:51.463Z,63.86
2017-11-03T10:18:51.101Z,63.67
2017-11-03T10:19:51.451Z,63.86
2017-11-03T10:20:51.142Z,62.71
2017-11-03T10:21:51.486Z,62.9
2017-11-03T10:22:51.508Z,62.71
2017-11-03T10:23:51.207Z,63.1
2017-11-03T10:24:51.229Z,63.39
2017-11-03T10:25:51.582Z,63.19
2017-11-03T10:26:51.272Z,63.86
2017-11-03T10:27:51.667Z,63.29
2017-11-03T10:28:51.640Z,62.71
2017-11-03T10:29:51.346Z,62.9
2017-11-03T10:30:51.356Z,62.9
2017-11-03T10:31:51.701Z,62.52
2017-11-03T10:32:51.721Z,62.14
2017-11-03T10:33:51.752Z,62.33
2017-11-03T10:34:51.766Z,62.04
2017-11-03T10:35:51.787Z,62.17
2017-11-03T10:36:51.806Z,63.1
2017-11-03T10:37:51.837Z,63.76
2017-11-03T10:38:51.851Z,63.19
2017-11-03T10:39:51.879Z,63.19
2017-11-03T10:40:51.572Z,63.73
2017-11-03T10:41:51.917Z,63.73
2017-11-03T10:42:51.617Z,63.83
2017-11-03T10:43:51.981Z,64.34
2017-11-03T10:44:51.660Z,64.59
2017-11-03T10:45:52.053Z,64.31
2017-11-03T10:46:52.022Z,65.17
2017-11-03T10:47:52.045Z,65.08
2017-11-03T10:48:52.065Z,65.17
2017-11-03T10:49:52.087Z,65.17
2017-11-03T10:50:52.107Z,64.22
2017-11-03T10:51:51.806Z,64.47
2017-11-03T10:52:52.171Z,64.85
2017-11-03T10:53:52.172Z,64.85
2017-11-03T10:54:51.873Z,65.23
2017-11-03T10:55:52.219Z,65.04
2017-11-03T10:56:52.233Z,63.99
2017-11-03T10:57:52.262Z,63.83
2017-11-03T10:58:51.956Z,63.26
2017-11-03T10:59:52.298Z,62.59
2017-11-03T11:00:52.318Z,62.04
2017-11-03T11:01:52.397Z,62.01
2017-11-03T11:02:52.362Z,62.43
2017-11-03T11:03:52.383Z,61.76
2017-11-03T11:04:52.409Z,61.94
2017-11-03T11:05:52.432Z,61.76
2017-11-03T11:06:52.126Z,61.76
2017-11-03T11:07:52.149Z,61.66
2017-11-03T11:08:52.184Z,61.76
2017-11-03T11:09:52.194Z,61.57
2017-11-03T11:10:52.536Z,60.35
2017-11-03T11:11:52.559Z,59.77
2017-11-03T11:12:52.258Z,59.77
2017-11-03T11:13:52.280Z,59.58
2017-11-03T11:14:52.625Z,59.68
2017-11-03T11:15:52.648Z,59.3
2017-11-03T11:16:52.402Z,59.48
2017-11-03T11:17:52.369Z,59.3
2017-11-03T11:18:52.393Z,59.48
2017-11-03T11:19:52.739Z,59.61
2017-11-03T11:20:52.436Z,58.56
2017-11-03T11:21:52.458Z,58.17
2017-11-03T11:22:52.802Z,57.15
2017-11-03T11:23:52.504Z,57.06
2017-11-03T11:24:52.849Z,56.09
2017-11-03T11:25:52.869Z,56.26
2017-11-03T11:26:52.898Z,56
2017-11-03T11:27:52.916Z,55.68
2017-11-03T11:28:52.941Z,56.16
2017-11-03T11:29:52.960Z,56.26
2017-11-03T11:30:52.982Z,56.64
2017-11-03T11:31:53.009Z,56.86
2017-11-03T11:32:53.028Z,56.29
2017-11-03T11:33:53.052Z,56.09
2017-11-03T11:34:53.076Z,55.8
2017-11-03T11:35:53.102Z,55.13
2017-11-03T11:36:53.130Z,55.13
2017-11-03T11:37:52.824Z,54.27
2017-11-03T11:38:52.857Z,54.46
2017-11-03T11:39:53.194Z,54.56
2017-11-03T11:40:53.223Z,53.72
2017-11-03T11:41:53.240Z,52.95
2017-11-03T11:42:53.270Z,52.69
2017-11-03T11:43:53.284Z,53.05
2017-11-03T11:44:53.308Z,52.95
2017-11-03T11:45:53.332Z,51.16
2017-11-03T11:46:53.038Z,51.04
2017-11-03T11:47:53.123Z,50.65
2017-11-03T11:48:53.084Z,50.49
2017-11-03T11:49:53.108Z,50.68
2017-11-03T11:50:53.135Z,51.16
2017-11-03T11:51:53.157Z,50.68
2017-11-03T11:52:53.180Z,50.29
2017-11-03T11:53:53.526Z,50.49
2017-11-03T11:54:53.550Z,50.29
2017-11-03T11:55:53.253Z,49.05
2017-11-03T11:56:53.603Z,49.05
2017-11-03T11:57:53.304Z,49.26
2017-11-03T11:58:53.325Z,49.72
2017-11-03T11:59:53.672Z,48.88
2017-11-03T12:00:53.694Z,48.79
2017-11-03T12:01:53.721Z,48.3
2017-11-03T12:02:53.751Z,48.49
2017-11-03T12:03:53.449Z,47.72
2017-11-03T12:04:53.473Z,47.63
2017-11-03T12:05:53.868Z,46.89
2017-11-03T12:06:53.847Z,47.49
2017-11-03T12:07:53.867Z,47.77
2017-11-03T12:08:53.601Z,47.75
2017-11-03T12:09:53.600Z,46.89
2017-11-03T12:10:53.947Z,46.41
2017-11-03T12:11:53.650Z,46.5
2017-11-03T12:12:53.674Z,46.23
2017-11-03T12:13:54.024Z,45.95
2017-11-03T12:14:54.046Z,45.76
2017-11-03T12:15:54.073Z,46.23
2017-11-03T12:16:53.776Z,45.37
2017-11-03T12:17:54.125Z,45.18
2017-11-03T12:18:53.845Z,44.7
2017-11-03T12:19:53.855Z,44.53
2017-11-03T12:20:54.198Z,43.95
2017-11-03T12:21:54.225Z,43.78
2017-11-03T12:22:53.928Z,42.33
2017-11-03T12:23:53.955Z,43.4
2017-11-03T12:24:54.302Z,43.68
2017-11-03T12:25:54.341Z,43.76
2017-11-03T12:26:54.348Z,43.85
2017-11-03T12:27:54.051Z,42.99
2017-11-03T12:28:54.081Z,42.99
2017-11-03T12:29:54.428Z,43.28
2017-11-03T12:30:54.458Z,42.8
2017-11-03T12:31:54.155Z,43.08
2017-11-03T12:32:54.187Z,43.66
2017-11-03T12:33:54.208Z,43.93
2017-11-03T12:34:54.554Z,44.24
2017-11-03T12:35:54.258Z,44.14
2017-11-03T12:36:54.284Z,43.95
2017-11-03T12:37:54.327Z,43.66
2017-11-03T12:38:54.654Z,44.05
2017-11-03T12:39:54.690Z,43.66
2017-11-03T12:40:54.460Z,44.12
2017-11-03T12:41:54.458Z,44.53
2017-11-03T12:42:54.432Z,44.31
2017-11-03T12:43:54.786Z,43.76
2017-11-03T12:44:54.807Z,43.84
2017-11-03T12:45:54.508Z,44.12
2017-11-03T12:46:54.532Z,43.57
2017-11-03T12:47:54.560Z,43.37
2017-11-03T12:48:54.910Z,43.08
2017-11-03T12:49:54.611Z,42.7
2017-11-03T12:50:54.638Z,42.5
2017-11-03T12:51:54.659Z,43.64
2017-11-03T12:52:55.029Z,43.95
2017-11-03T12:53:55.034Z,44.24
2017-11-03T12:54:55.057Z,44.53
2017-11-03T12:55:55.089Z,45.29
2017-11-03T12:56:54.788Z,45.59